Terminal Aerodrome Forecast
Issued by NWS

Home | Current Version | Previous Version | Text Only | Print | Product List | Glossary On
Versions: 1 2 3 4 5 6 7 8 9 10 11 12 13 14 15 16 17 18 19 20 21 22 23 24 25 26 27
000
FTUS43 KABR 010500
TAFMBG
TAF
KMBG 010527Z 0106/0206 02019KT P6SM SCT050 OVC110
     FM010630 36015G21KT 3SM -SN BKN015 OVC040
     FM011400 35011KT P6SM SKC
     FM012300 VRB06KT P6SM SKC=

USA.gov is the U.S. government's official web portal to all federal, state and local government web resources and services.